Time;durP1;ratioP1;P1;durP2;ratioP2;P2;SDS_P1;SDS_P2;PMS_P1;PMS_P2;Temp;Humidity;BMP_temperature;BMP_pressure;BME280_temperature;BME280_humidity;BME280_pressure;Samples;Min_cycle;Max_cycle;Signal;HPM_P1;HPM_P2
2021/01/17 00:02:40;;;;;;;41.60;22.88;;;0.50;99.90;;;;;;4981152;28;20259;-75
2021/01/17 00:05:27;;;;;;;41.10;22.33;;;0.60;99.90;;;;;;4980686;28;20748;-74
2021/01/17 00:08:13;;;;;;;39.72;22.15;;;0.70;99.90;;;;;;4981907;28;20202;-75
2021/01/17 00:10:58;;;;;;;40.95;23.10;;;0.70;99.90;;;;;;4977449;28;20269;-75
2021/01/17 00:13:44;;;;;;;39.15;24.30;;;0.70;99.90;;;;;;4984807;28;20210;-75
2021/01/17 00:16:29;;;;;;;38.58;23.27;;;0.80;99.90;;;;;;4983071;28;20755;-74
2021/01/17 00:19:14;;;;;;;36.55;23.15;;;0.80;99.90;;;;;;4980156;28;20246;-75
2021/01/17 00:21:59;;;;;;;36.53;23.30;;;0.80;99.90;;;;;;4984355;28;20234;-75
2021/01/17 00:24:45;;;;;;;38.78;24.20;;;0.80;99.90;;;;;;4985798;28;20215;-75
2021/01/17 00:27:30;;;;;;;44.13;24.35;;;0.90;99.90;;;;;;4983498;28;20763;-75
2021/01/17 00:30:17;;;;;;;38.28;22.55;;;0.80;99.90;;;;;;4985533;28;21227;-74
2021/01/17 00:33:04;;;;;;;38.90;23.40;;;0.70;99.90;;;;;;4984762;28;20222;-75
2021/01/17 00:35:49;;;;;;;35.00;22.05;;;0.60;99.90;;;;;;4985951;28;20311;-76
2021/01/17 00:38:34;;;;;;;35.42;23.08;;;0.70;99.90;;;;;;4983722;28;20211;-74
2021/01/17 00:41:19;;;;;;;37.78;23.42;;;0.70;99.90;;;;;;4978599;28;20242;-76
2021/01/17 00:44:04;;;;;;;40.10;22.65;;;0.70;99.90;;;;;;4982519;28;20323;-75
2021/01/17 00:46:51;;;;;;;40.08;23.77;;;0.70;99.90;;;;;;4982164;28;20691;-74
2021/01/17 00:49:36;;;;;;;36.33;21.90;;;0.70;99.90;;;;;;4984355;28;20265;-74
2021/01/17 00:52:22;;;;;;;33.67;21.88;;;0.70;99.90;;;;;;4979117;28;21015;-75
2021/01/17 00:55:09;;;;;;;35.17;23.10;;;0.70;99.90;;;;;;4986603;28;20206;-75
2021/01/17 00:57:53;;;;;;;34.47;22.27;;;0.60;99.90;;;;;;4984531;28;20278;-75
2021/01/17 01:00:39;;;;;;;36.20;23.08;;;0.50;99.90;;;;;;4983996;28;20763;-75
2021/01/17 01:03:25;;;;;;;34.65;21.20;;;0.50;99.90;;;;;;4984185;28;20203;-76
2021/01/17 01:06:17;;;;;;;37.63;21.55;;;0.60;99.90;;;;;;4985334;28;20213;-74
2021/01/17 01:09:06;;;;;;;32.63;21.02;;;0.70;99.90;;;;;;4986443;28;20210;-75
2021/01/17 01:11:51;;;;;;;40.95;23.08;;;0.70;99.90;;;;;;4986750;28;20247;-75
2021/01/17 01:14:36;;;;;;;39.72;23.52;;;0.70;99.90;;;;;;4985754;28;20202;-75
2021/01/17 01:17:25;;;;;;;38.58;22.65;;;0.80;99.90;;;;;;4985297;28;20306;-74
2021/01/17 01:20:12;;;;;;;39.10;24.63;;;0.80;99.90;;;;;;4980270;28;20653;-75
2021/01/17 01:22:57;;;;;;;37.28;22.55;;;0.90;99.90;;;;;;4978712;28;20211;-74
2021/01/17 01:25:43;;;;;;;34.65;22.20;;;0.80;99.90;;;;;;4982496;28;20585;-75
2021/01/17 01:28:28;;;;;;;40.97;23.73;;;0.90;99.90;;;;;;4983142;28;20238;-75
2021/01/17 01:31:16;;;;;;;38.88;23.17;;;0.90;99.90;;;;;;4985051;28;20231;-75
2021/01/17 01:34:03;;;;;;;37.53;22.58;;;0.80;99.90;;;;;;4986827;28;20257;-75
2021/01/17 01:36:49;;;;;;;33.25;21.88;;;0.80;99.90;;;;;;4986545;28;20234;-76
2021/01/17 01:39:34;;;;;;;36.47;23.27;;;0.80;99.90;;;;;;4985808;28;20221;-75
2021/01/17 01:42:20;;;;;;;36.75;22.65;;;0.80;99.90;;;;;;4984540;28;20236;-75
2021/01/17 01:45:06;;;;;;;36.72;23.52;;;0.90;99.90;;;;;;4979056;28;20282;-75
2021/01/17 01:47:51;;;;;;;35.50;21.85;;;0.90;99.90;;;;;;4983681;28;20245;-75
2021/01/17 01:50:36;;;;;;;37.03;23.73;;;0.90;99.90;;;;;;4983157;28;20223;-75
2021/01/17 01:53:23;;;;;;;40.40;23.50;;;0.90;99.90;;;;;;4979756;28;20861;-75
2021/01/17 01:56:09;;;;;;;40.25;24.25;;;0.80;99.90;;;;;;4986462;28;20222;-75
2021/01/17 01:58:55;;;;;;;38.50;22.27;;;0.90;99.90;;;;;;4985990;28;20226;-76
2021/01/17 02:01:41;;;;;;;36.13;23.55;;;0.90;99.90;;;;;;4984349;28;20316;-75
2021/01/17 02:04:26;;;;;;;34.95;22.33;;;0.90;99.90;;;;;;4982284;28;20211;-75
2021/01/17 02:07:38;;;;;;;37.22;22.83;;;0.80;99.90;;;;;;4984292;28;20327;-73
2021/01/17 02:10:25;;;;;;;37.28;24.58;;;0.70;99.90;;;;;;4965436;28;20386;-75
2021/01/17 02:13:17;;;;;;;37.03;23.05;;;0.70;99.90;;;;;;4988621;28;20211;-76
2021/01/17 02:16:06;;;;;;;37.85;23.17;;;0.80;99.90;;;;;;4991140;28;20214;-73
2021/01/17 02:18:53;;;;;;;35.92;22.13;;;0.80;99.90;;;;;;4983339;28;20223;-74
2021/01/17 02:21:42;;;;;;;36.42;22.63;;;0.80;99.90;;;;;;4979415;28;20227;-74
2021/01/17 02:24:45;;;;;;;36.45;20.17;;;0.70;99.90;;;;;;4981860;28;20263;-73
2021/01/17 02:27:32;;;;;;;38.00;24.45;;;0.70;99.90;;;;;;4988332;28;20378;-75
2021/01/17 02:30:18;;;;;;;39.22;23.83;;;0.70;99.90;;;;;;4986024;28;20316;-75
2021/01/17 02:33:08;;;;;;;32.90;20.77;;;0.70;99.90;;;;;;4988642;28;20206;-74
2021/01/17 02:35:58;;;;;;;34.83;22.52;;;0.70;99.90;;;;;;4989513;28;20226;-75
2021/01/17 02:38:52;;;;;;;33.97;21.02;;;0.80;99.90;;;;;;4984093;28;20202;-73
2021/01/17 02:41:55;;;;;;;37.95;22.17;;;0.70;99.90;;;;;;4987741;28;20242;-75
2021/01/17 02:44:42;;;;;;;36.45;21.15;;;0.80;99.90;;;;;;4989227;28;20205;-75
2021/01/17 02:47:27;;;;;;;35.80;22.58;;;0.80;99.90;;;;;;4985608;28;20207;-75
2021/01/17 02:50:13;;;;;;;35.00;22.23;;;0.80;99.90;;;;;;4984952;28;20273;-74
2021/01/17 02:53:09;;;;;;;36.70;23.25;;;0.90;99.90;;;;;;4981533;28;20211;-75
2021/01/17 02:55:56;;;;;;;32.03;20.25;;;0.90;99.90;;;;;;4988451;28;20215;-75
2021/01/17 02:58:43;;;;;;;34.33;21.20;;;0.90;99.90;;;;;;4987958;28;20623;-75
2021/01/17 03:01:32;;;;;;;36.00;21.42;;;0.90;99.90;;;;;;4983085;28;20232;-75
2021/01/17 03:04:23;;;;;;;38.60;22.50;;;0.90;99.90;;;;;;4987549;28;20202;-73
2021/01/17 03:07:12;;;;;;;37.97;21.40;;;0.90;99.90;;;;;;4985155;28;20239;-74
2021/01/17 03:09:59;;;;;;;37.85;22.48;;;1.00;99.90;;;;;;4987888;28;20227;-75
2021/01/17 03:12:44;;;;;;;35.17;21.15;;;1.00;99.90;;;;;;4980792;28;20288;-74
2021/01/17 03:15:33;;;;;;;33.25;19.30;;;1.10;99.90;;;;;;4986936;28;20203;-75
2021/01/17 03:18:19;;;;;;;36.42;21.02;;;1.00;99.90;;;;;;4983626;28;20208;-75
2021/01/17 03:21:04;;;;;;;32.65;20.75;;;1.10;99.90;;;;;;4980174;28;20285;-74
2021/01/17 03:23:48;;;;;;;34.03;21.55;;;1.10;99.90;;;;;;4982120;28;20226;-75
2021/01/17 03:26:34;;;;;;;32.80;20.73;;;1.10;99.90;;;;;;4985975;28;20676;-74
2021/01/17 03:29:19;;;;;;;36.08;21.42;;;1.10;99.90;;;;;;4978712;28;20243;-75
2021/01/17 03:32:05;;;;;;;33.67;20.80;;;1.10;99.90;;;;;;4988569;28;20207;-75
2021/01/17 03:34:50;;;;;;;35.80;22.60;;;1.10;99.90;;;;;;4989077;28;20214;-75
2021/01/17 03:37:36;;;;;;;30.33;19.85;;;1.20;99.90;;;;;;4987234;28;20219;-74
2021/01/17 03:40:21;;;;;;;36.10;21.35;;;1.10;99.90;;;;;;4987811;28;20720;-74
2021/01/17 03:43:06;;;;;;;32.47;20.92;;;1.10;99.90;;;;;;4981371;28;20287;-75
2021/01/17 03:45:51;;;;;;;34.80;22.33;;;1.00;99.90;;;;;;4986591;28;20240;-75
2021/01/17 03:48:37;;;;;;;35.28;20.75;;;1.00;99.90;;;;;;4986711;28;20210;-76
2021/01/17 03:51:22;;;;;;;29.45;19.30;;;1.00;99.90;;;;;;4986231;28;21306;-75
2021/01/17 03:54:07;;;;;;;34.28;21.05;;;1.00;99.90;;;;;;4982301;28;20206;-74
2021/01/17 03:56:53;;;;;;;32.78;21.13;;;0.80;99.90;;;;;;4987402;28;20238;-75
2021/01/17 03:59:39;;;;;;;35.30;21.05;;;0.80;99.90;;;;;;4987428;28;20210;-75
2021/01/17 04:02:24;;;;;;;34.00;21.75;;;0.80;99.90;;;;;;4979061;28;20556;-75
2021/01/17 04:05:11;;;;;;;28.25;19.52;;;0.90;99.90;;;;;;4984506;28;20703;-75
2021/01/17 04:07:56;;;;;;;33.83;20.65;;;1.00;99.90;;;;;;4987940;28;20195;-75
2021/01/17 04:10:41;;;;;;;28.25;19.45;;;1.10;99.90;;;;;;4977228;28;20793;-74
2021/01/17 04:13:26;;;;;;;30.42;19.38;;;0.90;99.90;;;;;;4986900;28;20253;-75
2021/01/17 04:16:11;;;;;;;27.80;18.02;;;0.80;99.90;;;;;;4981548;28;20287;-74
2021/01/17 04:18:56;;;;;;;26.48;16.25;;;0.80;99.90;;;;;;4983847;28;20247;-76
2021/01/17 04:21:42;;;;;;;25.02;16.70;;;0.80;99.90;;;;;;4984901;28;20242;-75
2021/01/17 04:24:27;;;;;;;23.60;16.10;;;0.90;99.90;;;;;;4984931;28;20573;-75
2021/01/17 04:27:12;;;;;;;25.17;15.52;;;0.90;99.90;;;;;;4986565;28;20753;-75
2021/01/17 04:29:58;;;;;;;22.63;15.68;;;1.00;99.90;;;;;;4978808;28;20259;-75
2021/01/17 04:32:42;;;;;;;26.17;15.27;;;1.10;99.90;;;;;;4983718;28;20211;-75
2021/01/17 04:35:28;;;;;;;25.17;16.55;;;1.20;99.90;;;;;;4980166;28;20583;-75
2021/01/17 04:38:14;;;;;;;26.17;16.20;;;1.20;99.90;;;;;;4981707;28;20267;-76
2021/01/17 04:41:04;;;;;;;24.30;16.15;;;1.20;99.90;;;;;;4986226;28;20286;-75
2021/01/17 04:43:56;;;;;;;23.13;15.07;;;1.20;99.90;;;;;;4981399;28;20212;-75
2021/01/17 04:46:43;;;;;;;27.75;14.82;;;1.20;99.90;;;;;;4981143;28;20220;-75
2021/01/17 04:49:29;;;;;;;23.90;15.40;;;1.30;99.90;;;;;;4981101;28;20258;-75
2021/01/17 04:52:14;;;;;;;23.77;15.20;;;1.30;99.90;;;;;;4979093;28;20255;-76
2021/01/17 04:55:01;;;;;;;22.45;14.95;;;1.30;99.90;;;;;;4981121;28;20210;-75
2021/01/17 04:57:51;;;;;;;22.23;15.57;;;1.20;99.90;;;;;;4986253;28;20266;-75
2021/01/17 05:00:40;;;;;;;23.90;15.10;;;1.20;99.90;;;;;;4989039;28;20346;-75
2021/01/17 05:03:37;;;;;;;22.88;15.25;;;1.10;99.90;;;;;;4981429;28;20661;-74
2021/01/17 05:06:27;;;;;;;24.33;15.52;;;1.20;99.90;;;;;;4980203;28;20230;-75
2021/01/17 05:09:18;;;;;;;21.83;14.10;;;1.20;99.90;;;;;;4987782;28;20585;-74
2021/01/17 05:12:13;;;;;;;21.88;14.98;;;1.10;99.90;;;;;;4981056;28;20300;-74
2021/01/17 05:14:59;;;;;;;21.60;15.75;;;1.20;99.90;;;;;;4982466;28;20251;-74
2021/01/17 05:17:44;;;;;;;21.58;14.32;;;1.30;99.90;;;;;;4986195;28;20262;-74
2021/01/17 05:20:29;;;;;;;21.13;14.50;;;1.20;99.90;;;;;;4982981;28;20318;-75
2021/01/17 05:23:16;;;;;;;22.10;14.38;;;1.30;99.90;;;;;;4982432;28;20616;-75
2021/01/17 05:26:05;;;;;;;21.55;14.93;;;1.20;99.90;;;;;;4984505;28;20202;-72
2021/01/17 05:28:52;;;;;;;24.90;16.13;;;1.20;99.90;;;;;;4980284;28;20291;-75
2021/01/17 05:31:38;;;;;;;22.83;15.02;;;1.20;99.90;;;;;;4984740;28;20322;-75
2021/01/17 05:34:24;;;;;;;23.00;16.10;;;1.20;99.90;;;;;;4985135;28;20582;-73
2021/01/17 05:37:10;;;;;;;20.77;14.02;;;1.30;99.90;;;;;;4983071;28;20245;-75
2021/01/17 05:39:58;;;;;;;22.30;14.30;;;1.30;99.90;;;;;;4979637;28;20227;-75
2021/01/17 05:42:44;;;;;;;22.33;14.30;;;1.20;99.90;;;;;;4982469;28;20207;-73
2021/01/17 05:45:30;;;;;;;23.08;14.82;;;1.20;99.90;;;;;;4982530;28;20212;-75
2021/01/17 05:48:16;;;;;;;22.65;14.90;;;1.20;99.90;;;;;;4984465;28;20242;-73
2021/01/17 05:51:01;;;;;;;23.30;15.20;;;1.20;99.90;;;;;;4984715;28;20827;-75
2021/01/17 05:53:46;;;;;;;22.83;14.95;;;1.30;99.90;;;;;;4984078;28;20213;-75
2021/01/17 05:56:33;;;;;;;25.73;17.13;;;1.30;99.90;;;;;;4985064;28;21322;-74
2021/01/17 05:59:36;;;;;;;22.10;14.63;;;1.20;99.90;;;;;;4983602;28;20234;-75
2021/01/17 06:02:23;;;;;;;28.30;15.90;;;1.30;99.90;;;;;;4981525;28;20206;-74
2021/01/17 06:05:10;;;;;;;22.50;15.15;;;1.30;99.90;;;;;;4990660;28;20266;-76
2021/01/17 06:07:57;;;;;;;25.88;16.30;;;1.40;99.90;;;;;;4987273;28;20242;-74
2021/01/17 06:10:45;;;;;;;23.30;16.35;;;1.40;99.90;;;;;;4989361;28;20724;-75
2021/01/17 06:13:31;;;;;;;22.58;15.15;;;1.40;99.90;;;;;;4986239;28;20691;-75
2021/01/17 06:16:25;;;;;;;23.45;16.65;;;1.50;99.90;;;;;;4988957;28;20242;-75
2021/01/17 06:19:12;;;;;;;25.40;15.18;;;1.50;99.90;;;;;;4981657;28;20203;-74
2021/01/17 06:22:00;;;;;;;23.70;16.00;;;1.50;99.90;;;;;;4983623;28;20275;-76
2021/01/17 06:24:45;;;;;;;23.60;15.77;;;1.40;99.90;;;;;;4987299;28;20210;-75
2021/01/17 06:27:30;;;;;;;25.60;14.55;;;1.50;99.90;;;;;;4984798;28;20206;-74
2021/01/17 06:30:19;;;;;;;28.38;15.80;;;1.50;99.90;;;;;;4982434;28;20230;-75
2021/01/17 06:33:05;;;;;;;27.25;17.85;;;1.50;99.90;;;;;;4990321;28;20291;-74
2021/01/17 06:35:51;;;;;;;27.83;18.00;;;1.40;99.90;;;;;;4984476;28;20211;-75
2021/01/17 06:38:36;;;;;;;27.63;17.70;;;1.30;99.90;;;;;;4984253;28;20279;-77
2021/01/17 06:41:36;;;;;;;25.20;17.05;;;1.30;99.90;;;;;;4989909;28;20289;-76
2021/01/17 06:44:28;;;;;;;27.17;16.13;;;1.40;99.90;;;;;;4990033;28;20203;-75
2021/01/17 06:47:20;;;;;;;30.08;17.70;;;1.40;99.90;;;;;;4983790;28;20334;-75
2021/01/17 06:50:06;;;;;;;29.80;19.10;;;1.50;99.90;;;;;;4985685;28;20227;-73
2021/01/17 06:52:54;;;;;;;29.52;19.20;;;1.50;99.90;;;;;;4989839;28;20246;-73
2021/01/17 06:55:40;;;;;;;26.95;17.25;;;1.50;99.90;;;;;;4982685;28;20211;-74
2021/01/17 06:58:27;;;;;;;30.70;20.15;;;1.40;99.90;;;;;;4987170;28;20251;-74
2021/01/17 07:01:14;;;;;;;28.70;18.52;;;1.40;99.90;;;;;;4985761;28;20230;-74
2021/01/17 07:04:18;;;;;;;29.33;18.70;;;1.40;99.90;;;;;;4985315;28;20242;-75
2021/01/17 07:07:30;;;;;;;30.30;19.30;;;1.40;99.90;;;;;;4986361;28;22821;-74
2021/01/17 07:10:20;;;;;;;29.23;17.52;;;1.40;99.90;;;;;;4986361;28;20242;-74
2021/01/17 07:13:07;;;;;;;26.58;17.20;;;1.50;99.90;;;;;;4985940;28;20669;-75
2021/01/17 07:15:55;;;;;;;28.50;18.45;;;1.50;99.90;;;;;;4982074;28;20585;-75
2021/01/17 07:18:46;;;;;;;29.25;18.45;;;1.50;99.90;;;;;;4984409;28;20247;-74
2021/01/17 07:21:43;;;;;;;28.50;19.90;;;1.60;99.90;;;;;;4976377;28;20239;-75
2021/01/17 07:24:31;;;;;;;29.23;19.60;;;1.50;99.90;;;;;;4978746;28;20210;-76
2021/01/17 07:27:30;;;;;;;26.45;18.55;;;1.50;99.90;;;;;;4988547;28;20258;-75
2021/01/17 07:30:20;;;;;;;32.47;18.35;;;1.50;99.90;;;;;;4980084;28;20598;-75
2021/01/17 07:33:07;;;;;;;28.48;19.13;;;1.50;99.90;;;;;;4987320;28;20246;-75
2021/01/17 07:35:54;;;;;;;28.77;19.77;;;1.60;99.90;;;;;;4987971;28;20211;-74
2021/01/17 07:38:41;;;;;;;29.60;19.58;;;1.50;99.90;;;;;;4986875;28;20347;-74
2021/01/17 07:41:29;;;;;;;35.20;20.48;;;1.50;99.90;;;;;;4986427;28;20237;-75
2021/01/17 07:44:18;;;;;;;34.67;20.90;;;1.40;99.90;;;;;;4988565;28;20203;-74
2021/01/17 07:47:05;;;;;;;35.17;21.73;;;1.40;99.90;;;;;;4988102;28;20218;-73
2021/01/17 07:49:52;;;;;;;39.28;24.20;;;1.40;99.90;;;;;;4984390;28;20688;-72
2021/01/17 07:52:41;;;;;;;58.75;30.67;;;1.50;99.90;;;;;;4988769;28;20207;-74
2021/01/17 07:55:27;;;;;;;35.28;22.25;;;1.50;99.90;;;;;;4976572;28;20211;-74
2021/01/17 07:58:12;;;;;;;34.05;20.38;;;1.60;99.90;;;;;;4985507;28;20320;-75
2021/01/17 08:01:00;;;;;;;29.92;19.30;;;1.60;99.90;;;;;;4984722;28;20222;-73
2021/01/17 08:03:45;;;;;;;33.05;21.60;;;1.60;99.90;;;;;;4985371;28;20205;-75
2021/01/17 08:06:48;;;;;;;35.38;21.75;;;1.70;99.90;;;;;;4984180;28;20623;-74
2021/01/17 08:09:44;;;;;;;33.17;20.27;;;1.70;99.90;;;;;;4982684;28;20254;-75
2021/01/17 08:12:37;;;;;;;34.08;19.90;;;1.70;99.90;;;;;;4983179;28;20262;-74
2021/01/17 08:15:28;;;;;;;34.92;22.30;;;1.60;99.90;;;;;;4983739;28;20221;-74
2021/01/17 08:18:36;;;;;;;32.53;20.55;;;1.70;99.90;;;;;;4979579;28;20223;-75
2021/01/17 08:21:27;;;;;;;34.15;20.52;;;1.60;99.90;;;;;;4985943;28;20355;-74
2021/01/17 08:24:22;;;;;;;40.15;23.40;;;1.70;99.90;;;;;;4987025;28;20214;-75
2021/01/17 08:27:08;;;;;;;43.88;24.35;;;1.70;99.90;;;;;;4976409;28;20625;-74
2021/01/17 08:30:19;;;;;;;34.75;22.40;;;1.80;99.90;;;;;;4982799;28;20211;-73
2021/01/17 08:33:12;;;;;;;38.38;21.77;;;1.80;99.90;;;;;;4985849;28;20312;-75
2021/01/17 08:35:58;;;;;;;37.45;22.25;;;1.80;99.90;;;;;;4986381;28;20234;-75
2021/01/17 08:38:43;;;;;;;38.88;22.25;;;1.80;99.90;;;;;;4983427;28;20261;-74
2021/01/17 08:41:28;;;;;;;36.20;22.63;;;1.60;99.90;;;;;;4983489;28;20250;-75
2021/01/17 08:44:15;;;;;;;35.08;22.02;;;1.70;99.90;;;;;;4982461;28;20215;-74
2021/01/17 08:47:20;;;;;;;35.30;22.27;;;1.70;99.90;;;;;;4977382;28;20318;-75
2021/01/17 08:50:06;;;;;;;35.88;21.52;;;1.80;99.90;;;;;;4982065;28;20230;-75
2021/01/17 08:52:52;;;;;;;35.75;23.15;;;1.90;99.90;;;;;;4986832;28;20266;-75
2021/01/17 08:55:38;;;;;;;39.55;24.80;;;1.90;99.90;;;;;;4986020;28;20235;-75
2021/01/17 08:58:46;;;;;;;39.00;23.85;;;1.90;99.90;;;;;;4983857;28;20219;-74
2021/01/17 09:01:31;;;;;;;40.22;24.42;;;2.00;99.90;;;;;;4980380;28;20251;-75
2021/01/17 09:04:24;;;;;;;41.25;24.50;;;2.00;99.90;;;;;;4982049;28;20207;-75
2021/01/17 09:07:30;;;;;;;46.45;25.27;;;2.00;99.90;;;;;;4987332;28;20246;-75
2021/01/17 09:10:17;;;;;;;41.00;24.30;;;1.90;99.90;;;;;;4986490;28;20222;-75
2021/01/17 09:13:02;;;;;;;42.45;23.95;;;1.90;99.90;;;;;;4985187;28;20254;-74
2021/01/17 09:15:58;;;;;;;47.70;28.55;;;2.00;99.90;;;;;;4977312;28;20569;-73
2021/01/17 09:18:43;;;;;;;46.75;28.40;;;2.00;99.90;;;;;;4980880;28;20230;-75
2021/01/17 09:21:30;;;;;;;42.33;26.77;;;2.00;99.90;;;;;;4981439;28;20226;-75
2021/01/17 09:24:17;;;;;;;43.63;27.40;;;2.00;99.90;;;;;;4978198;28;20215;-75
2021/01/17 09:27:05;;;;;;;45.80;26.92;;;1.90;99.90;;;;;;4980892;28;20275;-75
2021/01/17 09:29:50;;;;;;;50.88;26.75;;;1.80;99.90;;;;;;4985089;28;20249;-75
2021/01/17 09:32:36;;;;;;;46.92;27.17;;;1.80;99.90;;;;;;4981162;28;20269;-75
2021/01/17 09:35:22;;;;;;;42.33;26.90;;;1.80;99.90;;;;;;4985574;28;20222;-75
2021/01/17 09:38:11;;;;;;;49.30;26.13;;;1.90;99.90;;;;;;4986194;28;20226;-74
2021/01/17 09:40:57;;;;;;;49.08;28.35;;;1.90;99.90;;;;;;4982180;28;20237;-75
2021/01/17 09:43:43;;;;;;;47.78;28.52;;;1.90;99.90;;;;;;4981527;28;20290;-74
2021/01/17 09:46:34;;;;;;;47.47;26.48;;;1.90;99.90;;;;;;4987116;28;20302;-75
2021/01/17 09:49:24;;;;;;;45.53;28.02;;;2.00;99.90;;;;;;4981403;28;20308;-75
2021/01/17 09:52:14;;;;;;;48.90;29.33;;;2.00;99.90;;;;;;4976975;28;20219;-74
2021/01/17 09:54:59;;;;;;;52.47;26.38;;;2.00;99.90;;;;;;4984285;28;20217;-75
2021/01/17 09:57:44;;;;;;;44.30;26.60;;;2.00;99.90;;;;;;4977162;28;20313;-75
2021/01/17 10:00:30;;;;;;;45.92;27.33;;;2.00;99.90;;;;;;4976988;28;20274;-75
2021/01/17 10:03:16;;;;;;;48.83;28.52;;;2.10;99.90;;;;;;4977440;28;20238;-75
2021/01/17 10:06:01;;;;;;;49.13;27.15;;;2.10;99.90;;;;;;4982460;28;20229;-73
2021/01/17 10:08:46;;;;;;;47.60;28.17;;;2.00;99.90;;;;;;4982727;28;20230;-74
2021/01/17 10:11:31;;;;;;;53.45;27.80;;;2.00;99.90;;;;;;4986710;28;20262;-75
2021/01/17 10:14:21;;;;;;;53.25;28.45;;;1.90;99.90;;;;;;4983323;28;20211;-74
2021/01/17 10:17:08;;;;;;;46.63;28.15;;;1.90;99.90;;;;;;4985069;28;20602;-74
2021/01/17 10:19:53;;;;;;;54.28;30.17;;;2.00;99.90;;;;;;4986376;28;20207;-74
2021/01/17 10:22:38;;;;;;;50.10;28.15;;;2.00;99.90;;;;;;4988765;28;20207;-75
2021/01/17 10:25:23;;;;;;;47.55;28.55;;;2.00;99.90;;;;;;4979943;28;20257;-75
2021/01/17 10:28:10;;;;;;;57.25;30.58;;;2.00;99.90;;;;;;4984430;28;20198;-75
2021/01/17 10:30:59;;;;;;;47.42;27.40;;;2.10;99.90;;;;;;4981465;28;20235;-75
2021/01/17 10:33:48;;;;;;;47.38;28.10;;;2.20;99.90;;;;;;4983016;28;20587;-74
2021/01/17 10:36:35;;;;;;;52.30;31.95;;;2.20;99.90;;;;;;4987953;28;20210;-75
2021/01/17 10:39:20;;;;;;;49.13;28.20;;;2.30;99.90;;;;;;4983126;28;20287;-75
2021/01/17 10:42:13;;;;;;;49.47;28.45;;;2.30;99.90;;;;;;4989620;28;20226;-74
2021/01/17 10:45:03;;;;;;;46.42;26.02;;;2.30;99.90;;;;;;4985521;28;20290;-74
2021/01/17 10:47:57;;;;;;;50.85;29.25;;;2.40;99.90;;;;;;4986042;28;20206;-74
2021/01/17 10:50:49;;;;;;;42.55;26.55;;;2.50;99.90;;;;;;4989112;28;20230;-75
2021/01/17 10:53:46;;;;;;;52.10;30.30;;;2.50;99.90;;;;;;4986147;28;20255;-75
2021/01/17 10:56:32;;;;;;;52.58;30.17;;;2.50;99.90;;;;;;4989667;28;20219;-75
2021/01/17 10:59:24;;;;;;;49.35;28.35;;;2.50;99.90;;;;;;4983591;28;20227;-76
2021/01/17 11:02:20;;;;;;;47.88;28.92;;;2.40;99.90;;;;;;4989544;28;20319;-76
2021/01/17 11:05:06;;;;;;;46.38;28.60;;;2.50;99.90;;;;;;4991147;28;20346;-74
2021/01/17 11:07:52;;;;;;;51.47;29.85;;;2.60;99.90;;;;;;4978946;28;20689;-74
2021/01/17 11:10:37;;;;;;;53.08;29.20;;;2.70;99.90;;;;;;4979143;28;20231;-74
2021/01/17 11:13:22;;;;;;;56.20;29.75;;;2.80;99.90;;;;;;4986181;28;20207;-72
2021/01/17 11:16:08;;;;;;;47.92;29.75;;;2.90;99.90;;;;;;4982119;28;20207;-75
2021/01/17 11:18:53;;;;;;;50.22;29.13;;;3.00;99.90;;;;;;4978047;28;20247;-73
2021/01/17 11:21:39;;;;;;;50.60;29.05;;;2.90;99.90;;;;;;4985417;28;20258;-74
2021/01/17 11:24:36;;;;;;;47.85;27.25;;;2.90;99.90;;;;;;4988211;28;20215;-72
2021/01/17 11:27:22;;;;;;;48.08;28.27;;;2.90;99.90;;;;;;4986913;28;20239;-76
2021/01/17 11:30:08;;;;;;;46.30;27.60;;;2.70;99.90;;;;;;4984398;28;20281;-74
2021/01/17 11:33:05;;;;;;;43.70;27.50;;;2.70;99.90;;;;;;4983857;28;20214;-74
2021/01/17 11:35:51;;;;;;;47.67;27.42;;;2.70;99.90;;;;;;4980171;28;20309;-74
2021/01/17 11:38:47;;;;;;;46.35;27.02;;;2.70;99.90;;;;;;4980393;28;20633;-74
2021/01/17 11:41:35;;;;;;;46.60;26.63;;;2.70;99.90;;;;;;4986735;28;20706;-74
2021/01/17 11:44:21;;;;;;;39.85;24.48;;;2.70;99.90;;;;;;4987309;28;20262;-74
2021/01/17 11:47:18;;;;;;;45.10;27.17;;;2.80;99.90;;;;;;4980486;28;20210;-73
2021/01/17 11:50:17;;;;;;;43.63;24.20;;;2.80;99.90;;;;;;4976830;28;20254;-74
2021/01/17 11:53:03;;;;;;;39.28;23.33;;;2.70;99.90;;;;;;4980740;28;20262;-73
2021/01/17 11:55:50;;;;;;;36.00;21.27;;;2.70;99.90;;;;;;4982341;28;20265;-74
2021/01/17 11:58:40;;;;;;;39.35;22.77;;;2.60;99.90;;;;;;4985314;28;20234;-73
2021/01/17 12:01:25;;;;;;;40.63;23.15;;;2.70;99.90;;;;;;4984784;28;20269;-74
2021/01/17 12:04:12;;;;;;;36.33;21.70;;;2.80;99.90;;;;;;4985012;28;20834;-72
2021/01/17 12:07:08;;;;;;;34.00;20.52;;;3.00;99.90;;;;;;4979358;28;20329;-72
2021/01/17 12:10:02;;;;;;;38.22;21.95;;;3.20;99.90;;;;;;4983123;28;20250;-72
2021/01/17 12:12:48;;;;;;;41.35;20.05;;;3.30;99.90;;;;;;4988970;28;20229;-73
2021/01/17 12:15:34;;;;;;;35.67;22.90;;;3.40;99.90;;;;;;4989164;28;20585;-73
2021/01/17 12:18:19;;;;;;;29.58;20.15;;;3.30;99.90;;;;;;4985749;28;20238;-74
2021/01/17 12:21:05;;;;;;;34.45;21.05;;;3.30;99.90;;;;;;4986198;28;20223;-75
2021/01/17 12:23:50;;;;;;;82.85;41.17;;;3.30;99.90;;;;;;4986037;28;20216;-75
2021/01/17 12:26:36;;;;;;;50.88;27.13;;;3.20;99.90;;;;;;4985753;28;20203;-74
2021/01/17 12:29:21;;;;;;;47.25;27.90;;;3.20;99.90;;;;;;4979171;28;20245;-73
2021/01/17 12:32:08;;;;;;;49.88;25.05;;;3.20;99.90;;;;;;4985024;28;20254;-74
2021/01/17 12:34:53;;;;;;;50.65;27.15;;;3.00;99.90;;;;;;4983513;28;20222;-74
2021/01/17 12:37:38;;;;;;;40.95;24.40;;;3.00;99.90;;;;;;4986623;28;20277;-74
2021/01/17 12:40:23;;;;;;;37.55;22.85;;;2.90;99.90;;;;;;4979398;28;20331;-74
2021/01/17 12:43:09;;;;;;;36.58;22.05;;;2.90;99.90;;;;;;4986311;28;20230;-74
2021/01/17 12:45:54;;;;;;;34.58;19.98;;;2.90;99.90;;;;;;4984053;28;20566;-74
2021/01/17 12:48:40;;;;;;;33.05;21.10;;;3.00;99.90;;;;;;4984516;28;20223;-74
2021/01/17 12:51:25;;;;;;;38.45;22.80;;;2.90;99.90;;;;;;4980939;28;20227;-74
2021/01/17 12:54:10;;;;;;;35.35;21.17;;;2.90;99.90;;;;;;4986928;28;20205;-74
2021/01/17 12:56:56;;;;;;;33.70;22.48;;;2.90;99.90;;;;;;4983544;28;20214;-74
2021/01/17 12:59:41;;;;;;;37.13;22.33;;;2.70;99.90;;;;;;4983745;28;20918;-75
2021/01/17 13:02:27;;;;;;;35.22;21.75;;;2.80;99.90;;;;;;4979867;28;20254;-74
2021/01/17 13:05:13;;;;;;;37.75;22.77;;;2.70;99.90;;;;;;4980885;28;20265;-74
2021/01/17 13:07:58;;;;;;;36.67;23.33;;;2.80;99.90;;;;;;4978037;28;20207;-74
2021/01/17 13:10:43;;;;;;;34.45;21.58;;;3.00;99.90;;;;;;4983536;28;20216;-74
2021/01/17 13:13:29;;;;;;;39.05;24.58;;;3.10;99.90;;;;;;4985345;28;20257;-74
2021/01/17 13:16:16;;;;;;;37.80;24.60;;;3.00;99.90;;;;;;4982828;28;20289;-74
2021/01/17 13:19:01;;;;;;;39.72;22.98;;;2.90;99.90;;;;;;4983201;28;20270;-74
2021/01/17 13:21:49;;;;;;;40.72;23.85;;;2.90;99.90;;;;;;4981851;28;20222;-74
2021/01/17 13:24:34;;;;;;;38.33;23.00;;;3.00;99.90;;;;;;4984236;28;20239;-73
2021/01/17 13:27:19;;;;;;;37.67;24.20;;;3.10;99.90;;;;;;4980489;28;20420;-73
2021/01/17 13:30:05;;;;;;;36.15;23.85;;;3.00;99.90;;;;;;4982183;28;20650;-74
2021/01/17 13:32:51;;;;;;;39.78;24.30;;;3.00;99.90;;;;;;4977856;28;20590;-73
2021/01/17 13:35:36;;;;;;;40.75;23.75;;;3.00;99.90;;;;;;4982561;28;20235;-73
2021/01/17 13:38:23;;;;;;;39.88;24.98;;;3.10;99.90;;;;;;4983925;28;20223;-74
2021/01/17 13:41:12;;;;;;;37.20;22.58;;;3.20;99.90;;;;;;4980636;28;20246;-74
2021/01/17 13:43:59;;;;;;;36.85;22.60;;;3.10;99.90;;;;;;4980841;28;20239;-74
2021/01/17 13:46:49;;;;;;;39.63;22.83;;;3.00;99.90;;;;;;4979969;28;20231;-73
2021/01/17 13:49:35;;;;;;;38.47;23.33;;;3.00;99.90;;;;;;4978040;28;20246;-73
2021/01/17 13:52:20;;;;;;;37.25;22.33;;;3.10;99.90;;;;;;4985042;28;20243;-74
2021/01/17 13:55:08;;;;;;;41.72;22.75;;;3.10;99.90;;;;;;4983235;28;20202;-74
2021/01/17 13:57:53;;;;;;;42.33;22.52;;;3.10;99.90;;;;;;4986451;28;20218;-74
2021/01/17 14:00:38;;;;;;;42.65;24.45;;;3.10;99.90;;;;;;4988003;28;20322;-73
2021/01/17 14:03:24;;;;;;;38.90;24.88;;;3.00;99.90;;;;;;4984568;28;20271;-74
2021/01/17 14:06:09;;;;;;;41.33;26.77;;;3.00;99.90;;;;;;4990046;28;20274;-74
2021/01/17 14:08:54;;;;;;;42.58;26.75;;;2.80;99.90;;;;;;4985978;28;20354;-74
2021/01/17 14:11:41;;;;;;;45.10;26.90;;;2.80;99.90;;;;;;4990813;28;20274;-74
2021/01/17 14:14:26;;;;;;;39.97;25.60;;;2.80;99.90;;;;;;4988367;28;20242;-74
2021/01/17 14:17:11;;;;;;;44.97;26.75;;;2.80;99.90;;;;;;4982377;28;20342;-74
2021/01/17 14:19:56;;;;;;;43.72;27.50;;;2.70;99.90;;;;;;4988780;28;20254;-74
2021/01/17 14:22:41;;;;;;;52.55;27.67;;;2.70;99.90;;;;;;4983936;28;20227;-75